METAR Data
IDs: Format: Raw Decoded Include TAF

Data at: 2014 UTC 25 Oct 2021

KOXC 251951Z 06009KT 5SM BR BKN003 BKN020 13/13 A2990 RMK AO2 SLP137 P0001 T01330128
KOXC 251917Z 07010KT 6SM BR BKN004 OVC016 14/13 A2991 RMK AO2 P0001
KOXC 251851Z 06009KT 7SM SCT007 OVC020 15/13 A2991 RMK AO2 SLP141 T01500133
KOXC 251751Z 18007KT 10SM BKN020 21/17 A2991 RMK AO2 SLP140 T02060167 10206 20144 58027
KOXC 251714Z 19008KT 10SM BKN017 20/17 A2993 RMK AO2
KOXC 251651Z 20009KT 180V240 10SM BKN013 20/17 A2994 RMK AO2 SLP148 T02000167
KOXC 251638Z 20006KT 10SM BKN013 19/17 A2994 RMK AO2
KOXC 251551Z 20006KT 10SM FEW010 BKN016 OVC022 18/17 A2997 RMK AO2 SLP158 T01830167
KOXC 251451Z VRB04KT 9SM OVC008 18/17 A2999 RMK AO2 CIG 006V011 SLP165 T01780167 58008
KOXC 251351Z 20006KT 6SM BR OVC006 17/17 A3000 RMK AO2 CIG 004V008 SLP170 T01670167
KOXC 251251Z 17007KT 1 1/2SM BR OVC004 16/16 A3001 RMK AO2 SLP173 T01610161
KOXC 251151Z 14007KT 1 1/2SM BR OVC002 14/14 A3002 RMK AO2 SLP176 60012 70023 T01440144 10144 20100 58012
KOXC 251051Z 12005KT 3SM BR BKN002 OVC008 13/13 A3003 RMK AO2 RAE36 SLP182 P0000 T01280128
KOXC 250951Z AUTO 14006KT 8SM -RA BKN002 OVC014 13/13 A3004 RMK AO2 SLP185 P0004 T01280128
KOXC 250851Z AUTO 13009KT 10SM -RA OVC002 12/12 A3005 RMK AO2 SLP189 P0002 60008 T01220122 58022
KOXC 250751Z AUTO 15007KT 7SM -RA OVC002 12/12 A3008 RMK AO2 SLP198 P0002 T01170117
KOXC 250651Z AUTO 13003KT 4SM -RA BR OVC002 11/11 A3010 RMK AO2 SLP207 P0004 T01060106
KOXC 250628Z AUTO 09004KT 3SM -RA BR OVC002 10/10 A3010 RMK AO2 P0003
KOXC 250618Z AUTO 09004KT 2 1/2SM -RA BR OVC002 10/10 A3010 RMK AO2 VIS 2V3 P0002
KOXC 250606Z AUTO 08004KT 3SM -RA BR OVC002 10/10 A3011 RMK AO2 P0001
KOXC 250551Z AUTO 10004KT 4SM -RA BR OVC004 10/10 A3012 RMK AO2 SLP212 P0004 60011 T01000100 10111 20094 58014
KOXC 250530Z AUTO 11005KT 4SM -RA BR BKN004 BKN027 OVC032 10/10 A3012 RMK AO2 CIG 003V009 P0002
KOXC 250513Z AUTO 11005KT 4SM -RA BR FEW006 BKN013 OVC027 10/09 A3013 RMK AO2 P0001
KOXC 250501Z AUTO 12006KT 4SM -RA BR FEW010 BKN013 OVC020 10/09 A3013 RMK AO2 P0000
KOXC 250451Z AUTO 12006KT 4SM -RA BR BKN015 OVC022 10/09 A3014 RMK AO2 SLP221 P0005 T01000094 401330017
KOXC 250351Z AUTO 09003KT 10SM -RA BKN023 BKN029 OVC035 10/09 A3016 RMK AO2 SLP226 P0002 T01000089
KOXC 250346Z AUTO 00000KT 10SM -RA BKN023 BKN029 OVC037 09/09 A3016 RMK AO2 P0002
KOXC 250251Z AUTO 11003KT 10SM -RA OVC041 11/07 A3017 RMK AO2 RAB22 SLP232 P0000 60000 T01060072 53002
KOXC 250151Z AUTO 00000KT 10SM OVC047 11/06 A3016 RMK AO2 SLP228 T01110061
KOXC 250051Z 00000KT 10SM OVC047 11/06 A3016 RMK AO2 SLP226 T01060061
KOXC 242351Z 00000KT 10SM OVC045 11/06 A3016 RMK AO2 SLP230 T01060061 10133 20106 53004
KOXC 242251Z 00000KT 10SM OVC041 11/06 A3016 RMK AO2 SLP229 T01060056
KOXC 242151Z 23003KT 10SM SCT050 BKN080 11/06 A3015 RMK AO2 SLP225 T01110056
KOXC 242051Z 23005KT 10SM BKN070 12/05 A3015 RMK AO2 SLP224 T01220050 53001
KOXC 241951Z 24006KT 10SM FEW025 BKN070 12/04 A3015 RMK AO2 SLP225 T01220044
KOXC 241851Z COR 26003KT 10SM FEW025 BKN070 13/04 A3014 RMK AO2 SLP221 T01280044
KOXC 241751Z COR 24006KT 10SM FEW025 13/03 A3015 RMK AO2 SLP222 T01280033 10133 20022 58013
KOXC 241651Z VRB04KT 10SM FEW025 12/04 A3016 RMK AO2 SLP226 T01220039
KOXC 241551Z 25004KT 10SM FEW025 11/04 A3018 RMK AO2 SLP232 T01110039
KOXC 241451Z VRB06KT 10SM CLR 09/04 A3018 RMK AO2 SLP235 T00940039 50012
KOXC 241351Z VRB04KT 9SM CLR 08/05 A3019 RMK AO2 SLP236 T00780050
KOXC 241251Z VRB03KT 10SM CLR 06/04 A3017 RMK AO2 SLP231 T00560044
KOXC 241151Z 00000KT 7SM CLR 03/03 A3015 RMK AO2 SLP225 T00280028 10056 20017 53021
KOXC 241051Z 00000KT 10SM CLR 02/02 A3013 RMK AO2 SLP219 T00220022
KOXC 240951Z AUTO 00000KT 10SM CLR 03/02 A3010 RMK AO2 SLP209 T00280022
KOXC 240851Z AUTO 32003KT 10SM CLR 04/03 A3008 RMK AO2 SLP202 T00390033 53018